sensor_id;sensor_type;location;lat;lon;timestamp;pressure;altitude;pressure_sealevel;temperature;humidity
52185;BME280;38160;52.876;18.778;2022-08-14T00:02:04;100766.23;;;19.33;78.09
52185;BME280;38160;52.876;18.778;2022-08-14T00:04:36;100754.97;;;19.32;78.19
52185;BME280;38160;52.876;18.778;2022-08-14T00:07:09;100759.23;;;19.28;78.12
52185;BME280;38160;52.876;18.778;2022-08-14T00:09:42;100754.17;;;19.25;78.29
52185;BME280;38160;52.876;18.778;2022-08-14T00:12:14;100757.36;;;19.22;78.22
52185;BME280;38160;52.876;18.778;2022-08-14T00:14:46;100752.01;;;19.17;78.18
52185;BME280;38160;52.876;18.778;2022-08-14T00:17:18;100750.55;;;19.15;77.94
52185;BME280;38160;52.876;18.778;2022-08-14T00:19:50;100751.84;;;19.12;78.06
52185;BME280;38160;52.876;18.778;2022-08-14T00:22:21;100752.79;;;19.09;77.93
52185;BME280;38160;52.876;18.778;2022-08-14T00:24:53;100755.85;;;19.03;78.11
52185;BME280;38160;52.876;18.778;2022-08-14T00:27:25;100745.36;;;19.00;78.15
52185;BME280;38160;52.876;18.778;2022-08-14T00:29:57;100745.48;;;18.96;78.12
52185;BME280;38160;52.876;18.778;2022-08-14T00:32:28;100743.61;;;18.90;78.33
52185;BME280;38160;52.876;18.778;2022-08-14T00:35:00;100747.83;;;18.86;78.36
52185;BME280;38160;52.876;18.778;2022-08-14T00:37:36;100750.80;;;18.84;78.39
52185;BME280;38160;52.876;18.778;2022-08-14T00:40:12;100746.91;;;18.83;78.45
52185;BME280;38160;52.876;18.778;2022-08-14T00:42:46;100747.02;;;18.79;78.34
52185;BME280;38160;52.876;18.778;2022-08-14T00:45:18;100748.58;;;18.70;78.38
52185;BME280;38160;52.876;18.778;2022-08-14T00:47:50;100752.83;;;18.66;78.54
52185;BME280;38160;52.876;18.778;2022-08-14T00:50:22;100742.01;;;18.62;78.53
52185;BME280;38160;52.876;18.778;2022-08-14T00:52:53;100747.89;;;18.59;78.61
52185;BME280;38160;52.876;18.778;2022-08-14T00:55:27;100742.33;;;18.56;78.67
52185;BME280;38160;52.876;18.778;2022-08-14T00:57:59;100734.23;;;18.52;78.83
52185;BME280;38160;52.876;18.778;2022-08-14T01:00:49;100734.89;;;18.48;78.76
52185;BME280;38160;52.876;18.778;2022-08-14T01:03:21;100734.70;;;18.43;78.81
52185;BME280;38160;52.876;18.778;2022-08-14T01:05:52;100736.17;;;18.39;78.98
52185;BME280;38160;52.876;18.778;2022-08-14T01:08:27;100736.71;;;18.38;79.04
52185;BME280;38160;52.876;18.778;2022-08-14T01:11:02;100736.17;;;18.39;79.05
52185;BME280;38160;52.876;18.778;2022-08-14T01:13:37;100732.81;;;18.37;79.04
52185;BME280;38160;52.876;18.778;2022-08-14T01:16:15;100728.92;;;18.35;78.98
52185;BME280;38160;52.876;18.778;2022-08-14T01:18:47;100719.27;;;18.32;79.10
52185;BME280;38160;52.876;18.778;2022-08-14T01:21:38;100719.06;;;18.34;79.16
52185;BME280;38160;52.876;18.778;2022-08-14T01:24:10;100723.06;;;18.31;79.04
52185;BME280;38160;52.876;18.778;2022-08-14T01:26:44;100721.08;;;18.29;79.21
52185;BME280;38160;52.876;18.778;2022-08-14T01:29:16;100720.45;;;18.27;79.19
52185;BME280;38160;52.876;18.778;2022-08-14T01:31:49;100717.48;;;18.22;79.27
52185;BME280;38160;52.876;18.778;2022-08-14T01:34:22;100719.50;;;18.18;79.37
52185;BME280;38160;52.876;18.778;2022-08-14T01:36:55;100714.91;;;18.11;79.35
52185;BME280;38160;52.876;18.778;2022-08-14T01:39:27;100706.29;;;18.08;79.50
52185;BME280;38160;52.876;18.778;2022-08-14T01:41:59;100710.39;;;18.08;79.62
52185;BME280;38160;52.876;18.778;2022-08-14T01:44:31;100714.05;;;18.04;79.75
52185;BME280;38160;52.876;18.778;2022-08-14T01:47:05;100709.13;;;18.04;79.75
52185;BME280;38160;52.876;18.778;2022-08-14T01:49:43;100710.70;;;18.02;79.68
52185;BME280;38160;52.876;18.778;2022-08-14T01:52:15;100706.50;;;18.00;79.94
52185;BME280;38160;52.876;18.778;2022-08-14T01:54:48;100707.23;;;17.98;79.87
52185;BME280;38160;52.876;18.778;2022-08-14T01:57:20;100707.23;;;17.98;80.04
52185;BME280;38160;52.876;18.778;2022-08-14T01:59:55;100710.59;;;18.00;80.11
52185;BME280;38160;52.876;18.778;2022-08-14T02:02:26;100715.02;;;18.01;80.19
52185;BME280;38160;52.876;18.778;2022-08-14T02:04:59;100708.50;;;18.02;80.18
52185;BME280;38160;52.876;18.778;2022-08-14T02:07:31;100714.29;;;18.03;80.25
52185;BME280;38160;52.876;18.778;2022-08-14T02:10:04;100716.28;;;18.05;80.38
52185;BME280;38160;52.876;18.778;2022-08-14T02:38:50;100673.75;;;17.93;80.44
52185;BME280;38160;52.876;18.778;2022-08-14T02:41:28;100696.30;;;18.11;80.31
52185;BME280;38160;52.876;18.778;2022-08-14T02:52:08;100689.69;;;18.16;80.31
52185;BME280;38160;52.876;18.778;2022-08-14T02:54:47;100680.13;;;18.16;80.37
52185;BME280;38160;52.876;18.778;2022-08-14T02:57:21;100678.95;;;18.21;80.23
52185;BME280;38160;52.876;18.778;2022-08-14T03:27:34;100668.95;;;18.24;80.27
52185;BME280;38160;52.876;18.778;2022-08-14T04:53:55;100639.66;;;19.69;78.99
52185;BME280;38160;52.876;18.778;2022-08-14T04:56:35;100634.99;;;19.86;78.87
52185;BME280;38160;52.876;18.778;2022-08-14T05:01:51;100630.53;;;20.19;78.42
52185;BME280;38160;52.876;18.778;2022-08-14T05:10:48;100625.08;;;20.77;77.81
52185;BME280;38160;52.876;18.778;2022-08-14T05:13:45;100623.00;;;20.91;77.65
52185;BME280;38160;52.876;18.778;2022-08-14T05:16:22;100621.50;;;21.07;77.63
52185;BME280;38160;52.876;18.778;2022-08-14T05:18:58;100619.86;;;21.17;77.45
52185;BME280;38160;52.876;18.778;2022-08-14T05:21:30;100630.63;;;21.31;77.54
52185;BME280;38160;52.876;18.778;2022-08-14T05:24:02;100629.84;;;21.42;76.40
52185;BME280;38160;52.876;18.778;2022-08-14T05:26:34;100628.47;;;21.42;76.51
52185;BME280;38160;52.876;18.778;2022-08-14T05:31:49;100629.38;;;21.45;76.14
52185;BME280;38160;52.876;18.778;2022-08-14T05:34:21;100623.52;;;21.53;76.30
52185;BME280;38160;52.876;18.778;2022-08-14T05:40:17;100623.00;;;21.66;76.04
52185;BME280;38160;52.876;18.778;2022-08-14T05:43:12;100627.59;;;21.86;76.08
52185;BME280;38160;52.876;18.778;2022-08-14T05:45:44;100627.34;;;21.99;75.83
52185;BME280;38160;52.876;18.778;2022-08-14T05:54:30;100630.79;;;22.30;75.06
52185;BME280;38160;52.876;18.778;2022-08-14T05:57:04;100633.39;;;22.49;74.10
52185;BME280;38160;52.876;18.778;2022-08-14T05:59:42;100629.66;;;22.69;74.36
52185;BME280;38160;52.876;18.778;2022-08-14T06:08:19;100618.25;;;23.20;73.98
52185;BME280;38160;52.876;18.778;2022-08-14T06:10:54;100616.55;;;23.34;73.46
52185;BME280;38160;52.876;18.778;2022-08-14T06:13:46;100612.39;;;23.48;73.15
52185;BME280;38160;52.876;18.778;2022-08-14T06:16:18;100610.02;;;23.54;73.08
52185;BME280;38160;52.876;18.778;2022-08-14T06:31:02;100598.97;;;23.88;71.60
52185;BME280;38160;52.876;18.778;2022-08-14T06:36:49;100588.12;;;24.01;71.64
52185;BME280;38160;52.876;18.778;2022-08-14T06:39:23;100591.11;;;24.19;71.27
52185;BME280;38160;52.876;18.778;2022-08-14T06:44:44;100583.29;;;24.55;70.09
52185;BME280;38160;52.876;18.778;2022-08-14T06:47:32;100589.55;;;24.72;70.24
52185;BME280;38160;52.876;18.778;2022-08-14T06:50:48;100578.97;;;24.88;69.52
52185;BME280;38160;52.876;18.778;2022-08-14T06:53:32;100578.73;;;24.93;67.18
52185;BME280;38160;52.876;18.778;2022-08-14T06:56:04;100574.03;;;24.90;69.23
52185;BME280;38160;52.876;18.778;2022-08-14T06:58:38;100585.72;;;25.03;69.16
52185;BME280;38160;52.876;18.778;2022-08-14T07:04:20;100588.02;;;25.41;68.75
52185;BME280;38160;52.876;18.778;2022-08-14T07:13:49;100581.11;;;25.81;67.68
52185;BME280;38160;52.876;18.778;2022-08-14T07:44:49;100585.27;;;25.41;65.35
52185;BME280;38160;52.876;18.778;2022-08-14T07:47:20;100581.13;;;25.43;65.06
52185;BME280;38160;52.876;18.778;2022-08-14T08:02:29;100574.12;;;25.70;64.74
52185;BME280;38160;52.876;18.778;2022-08-14T08:08:42;100570.06;;;25.83;63.42
52185;BME280;38160;52.876;18.778;2022-08-14T08:14:40;100566.32;;;26.00;64.07
52185;BME280;38160;52.876;18.778;2022-08-14T08:17:27;100565.03;;;26.23;64.12
52185;BME280;38160;52.876;18.778;2022-08-14T08:19:59;100562.87;;;26.38;63.80
52185;BME280;38160;52.876;18.778;2022-08-14T08:22:32;100559.55;;;26.41;62.40
52185;BME280;38160;52.876;18.778;2022-08-14T08:25:05;100561.76;;;26.41;63.40
52185;BME280;38160;52.876;18.778;2022-08-14T08:27:38;100555.14;;;26.50;63.27
52185;BME280;38160;52.876;18.778;2022-08-14T08:30:17;100554.58;;;26.43;62.94
52185;BME280;38160;52.876;18.778;2022-08-14T08:32:58;100556.21;;;26.31;62.75
52185;BME280;38160;52.876;18.778;2022-08-14T08:35:35;100551.77;;;26.30;62.54
52185;BME280;38160;52.876;18.778;2022-08-14T08:38:30;100551.77;;;26.27;62.60
52185;BME280;38160;52.876;18.778;2022-08-14T08:41:09;100550.93;;;26.22;62.49
52185;BME280;38160;52.876;18.778;2022-08-14T08:43:41;100551.20;;;26.28;62.36
52185;BME280;38160;52.876;18.778;2022-08-14T08:46:18;100556.78;;;26.33;62.55
52185;BME280;38160;52.876;18.778;2022-08-14T08:48:55;100550.69;;;26.41;62.28
52185;BME280;38160;52.876;18.778;2022-08-14T08:51:32;100555.40;;;26.38;62.23
52185;BME280;38160;52.876;18.778;2022-08-14T08:56:49;100551.75;;;26.20;62.27
52185;BME280;38160;52.876;18.778;2022-08-14T08:59:27;100547.03;;;26.15;62.06
52185;BME280;38160;52.876;18.778;2022-08-14T09:02:03;100540.09;;;26.12;62.07
52185;BME280;38160;52.876;18.778;2022-08-14T09:04:41;100540.69;;;26.22;61.89
52185;BME280;38160;52.876;18.778;2022-08-14T09:07:14;100535.20;;;26.35;61.93
52185;BME280;38160;52.876;18.778;2022-08-14T09:09:45;100533.86;;;26.53;61.85
52185;BME280;38160;52.876;18.778;2022-08-14T09:15:13;100525.05;;;26.74;61.67
52185;BME280;38160;52.876;18.778;2022-08-14T09:17:45;100516.77;;;26.82;61.48
52185;BME280;38160;52.876;18.778;2022-08-14T09:20:19;100514.55;;;26.91;61.40
52185;BME280;38160;52.876;18.778;2022-08-14T09:22:58;100512.61;;;27.02;61.60
52185;BME280;38160;52.876;18.778;2022-08-14T09:25:31;100508.47;;;27.10;61.11
52185;BME280;38160;52.876;18.778;2022-08-14T09:30:51;100495.99;;;27.05;60.91
52185;BME280;38160;52.876;18.778;2022-08-14T09:40:41;100487.70;;;26.87;60.92
52185;BME280;38160;52.876;18.778;2022-08-14T09:43:50;100485.47;;;26.76;60.93
52185;BME280;38160;52.876;18.778;2022-08-14T09:46:24;100480.77;;;26.74;61.12
52185;BME280;38160;52.876;18.778;2022-08-14T09:51:44;100479.66;;;26.60;60.94
52185;BME280;38160;52.876;18.778;2022-08-14T09:54:23;100480.22;;;26.62;60.94
52185;BME280;38160;52.876;18.778;2022-08-14T09:56:59;100481.06;;;26.70;60.72
52185;BME280;38160;52.876;18.778;2022-08-14T09:59:46;100480.23;;;26.90;60.66
52185;BME280;38160;52.876;18.778;2022-08-14T10:02:25;100475.22;;;27.05;60.61
52185;BME280;38160;52.876;18.778;2022-08-14T10:05:06;100468.84;;;27.20;59.96
52185;BME280;38160;52.876;18.778;2022-08-14T10:07:48;100478.81;;;27.33;60.43
52185;BME280;38160;52.876;18.778;2022-08-14T10:10:46;100477.41;;;27.51;60.14
52185;BME280;38160;52.876;18.778;2022-08-14T10:13:23;100487.33;;;27.65;59.33
52185;BME280;38160;52.876;18.778;2022-08-14T10:15:58;100481.20;;;27.76;59.97
52185;BME280;38160;52.876;18.778;2022-08-14T10:21:04;100473.67;;;27.92;59.49
52185;BME280;38160;52.876;18.778;2022-08-14T10:23:44;100474.73;;;28.01;59.27
52185;BME280;38160;52.876;18.778;2022-08-14T10:26:19;100467.45;;;28.15;59.35
52185;BME280;38160;52.876;18.778;2022-08-14T10:28:52;100461.00;;;28.30;59.18
52185;BME280;38160;52.876;18.778;2022-08-14T10:31:29;100468.09;;;28.49;58.78
52185;BME280;38160;52.876;18.778;2022-08-14T10:34:09;100465.39;;;28.34;58.60
52185;BME280;38160;52.876;18.778;2022-08-14T10:52:22;100455.29;;;28.09;57.86
52185;BME280;38160;52.876;18.778;2022-08-14T10:55:16;100457.20;;;28.13;57.96
52185;BME280;38160;52.876;18.778;2022-08-14T10:57:51;100460.46;;;28.23;57.83
52185;BME280;38160;52.876;18.778;2022-08-14T11:00:25;100454.37;;;28.24;57.19
52185;BME280;38160;52.876;18.778;2022-08-14T11:03:37;100455.66;;;28.39;57.47
52185;BME280;38160;52.876;18.778;2022-08-14T11:06:12;100452.14;;;28.65;56.96
52185;BME280;38160;52.876;18.778;2022-08-14T11:09:10;100449.19;;;28.88;57.10
52185;BME280;38160;52.876;18.778;2022-08-14T11:12:10;100451.52;;;29.10;56.96
52185;BME280;38160;52.876;18.778;2022-08-14T11:18:08;100451.54;;;29.05;56.51
52185;BME280;38160;52.876;18.778;2022-08-14T11:29:55;100436.20;;;28.81;56.21
52185;BME280;38160;52.876;18.778;2022-08-14T11:32:31;100439.51;;;28.46;56.12
52185;BME280;38160;52.876;18.778;2022-08-14T11:37:58;100441.34;;;28.19;56.37
52185;BME280;38160;52.876;18.778;2022-08-14T11:44:10;100429.22;;;28.07;56.21
52185;BME280;38160;52.876;18.778;2022-08-14T11:46:48;100434.41;;;28.22;56.59
52185;BME280;38160;52.876;18.778;2022-08-14T12:12:52;100421.10;;;28.92;56.09
52185;BME280;38160;52.876;18.778;2022-08-14T12:15:31;100414.22;;;28.85;56.18
52185;BME280;38160;52.876;18.778;2022-08-14T12:18:06;100418.41;;;28.82;56.14
52185;BME280;38160;52.876;18.778;2022-08-14T12:20:39;100416.26;;;28.76;56.50
52185;BME280;38160;52.876;18.778;2022-08-14T12:23:22;100419.59;;;28.73;57.18
52185;BME280;38160;52.876;18.778;2022-08-14T12:38:13;100410.63;;;28.50;59.35
52185;BME280;38160;52.876;18.778;2022-08-14T12:41:03;100402.87;;;28.78;59.15
52185;BME280;38160;52.876;18.778;2022-08-14T12:43:49;100395.15;;;28.75;58.57
52185;BME280;38160;52.876;18.778;2022-08-14T12:46:31;100391.12;;;28.89;58.54
52185;BME280;38160;52.876;18.778;2022-08-14T12:49:18;100392.53;;;28.87;58.50
52185;BME280;38160;52.876;18.778;2022-08-14T13:07:55;100377.75;;;28.30;58.58
52185;BME280;38160;52.876;18.778;2022-08-14T13:10:31;100374.54;;;28.10;58.73
52185;BME280;38160;52.876;18.778;2022-08-14T13:43:43;100324.63;;;28.76;58.50
52185;BME280;38160;52.876;18.778;2022-08-14T13:46:16;100310.39;;;29.05;58.35
52185;BME280;38160;52.876;18.778;2022-08-14T13:51:46;100302.52;;;29.38;57.85
52185;BME280;38160;52.876;18.778;2022-08-14T13:54:20;100300.64;;;29.53;57.91
52185;BME280;38160;52.876;18.778;2022-08-14T13:57:27;100297.56;;;29.54;57.40
52185;BME280;38160;52.876;18.778;2022-08-14T14:00:05;100292.77;;;29.60;57.39
52185;BME280;38160;52.876;18.778;2022-08-14T14:24:35;100248.30;;;30.89;54.25
52185;BME280;38160;52.876;18.778;2022-08-14T14:37:29;100256.95;;;31.15;52.89
52185;BME280;38160;52.876;18.778;2022-08-14T14:46:19;100250.13;;;31.60;52.17
52185;BME280;38160;52.876;18.778;2022-08-14T15:01:40;100265.58;;;31.66;51.35
52185;BME280;38160;52.876;18.778;2022-08-14T15:09:38;100249.92;;;31.56;51.23
52185;BME280;38160;52.876;18.778;2022-08-14T15:12:20;100252.28;;;31.74;51.07
52185;BME280;38160;52.876;18.778;2022-08-14T15:14:54;100256.46;;;31.85;50.32
52185;BME280;38160;52.876;18.778;2022-08-14T15:17:30;100254.45;;;31.89;50.49
52185;BME280;38160;52.876;18.778;2022-08-14T15:20:06;100266.29;;;31.72;50.22
52185;BME280;38160;52.876;18.778;2022-08-14T15:22:41;100263.16;;;31.98;50.61
52185;BME280;38160;52.876;18.778;2022-08-14T15:25:15;100254.03;;;32.06;50.05
52185;BME280;38160;52.876;18.778;2022-08-14T15:27:58;100255.94;;;32.09;50.28
52185;BME280;38160;52.876;18.778;2022-08-14T15:33:20;100242.03;;;32.48;50.03
52185;BME280;38160;52.876;18.778;2022-08-14T15:36:42;100246.14;;;32.51;49.14
52185;BME280;38160;52.876;18.778;2022-08-14T15:39:15;100253.18;;;32.28;49.15
52185;BME280;38160;52.876;18.778;2022-08-14T15:41:47;100255.21;;;32.14;49.41
52185;BME280;38160;52.876;18.778;2022-08-14T15:44:21;100259.41;;;32.03;49.41
52185;BME280;38160;52.876;18.778;2022-08-14T15:46:55;100255.06;;;31.74;49.13
52185;BME280;38160;52.876;18.778;2022-08-14T15:49:27;100251.91;;;31.78;49.30
52185;BME280;38160;52.876;18.778;2022-08-14T15:52:00;100244.48;;;31.74;49.27
52185;BME280;38160;52.876;18.778;2022-08-14T15:54:37;100264.45;;;31.78;49.26
52185;BME280;38160;52.876;18.778;2022-08-14T16:00:24;100261.14;;;31.54;49.11
52185;BME280;38160;52.876;18.778;2022-08-14T16:03:14;100268.55;;;31.19;49.32
52185;BME280;38160;52.876;18.778;2022-08-14T16:08:51;100277.08;;;30.98;49.35
52185;BME280;38160;52.876;18.778;2022-08-14T16:11:24;100289.06;;;30.54;49.80
52185;BME280;38160;52.876;18.778;2022-08-14T16:13:56;100288.13;;;30.29;49.90
52185;BME280;38160;52.876;18.778;2022-08-14T16:16:29;100273.25;;;30.00;50.10
52185;BME280;38160;52.876;18.778;2022-08-14T16:19:16;100277.23;;;29.78;50.42
52185;BME280;38160;52.876;18.778;2022-08-14T16:34:11;100319.16;;;28.00;52.05
52185;BME280;38160;52.876;18.778;2022-08-14T16:37:14;100321.05;;;27.60;52.57
52185;BME280;38160;52.876;18.778;2022-08-14T16:45:27;100321.28;;;26.93;53.73
52185;BME280;38160;52.876;18.778;2022-08-14T16:48:31;100323.81;;;26.72;53.94
52185;BME280;38160;52.876;18.778;2022-08-14T16:51:18;100323.83;;;26.51;54.24
52185;BME280;38160;52.876;18.778;2022-08-14T16:57:23;100304.76;;;26.29;54.94
52185;BME280;38160;52.876;18.778;2022-08-14T17:03:17;100297.30;;;26.04;55.28
52185;BME280;38160;52.876;18.778;2022-08-14T17:05:49;100302.26;;;25.92;55.50
52185;BME280;38160;52.876;18.778;2022-08-14T17:08:33;100307.20;;;25.87;55.79
52185;BME280;38160;52.876;18.778;2022-08-14T17:11:11;100303.61;;;25.87;55.97
52185;BME280;38160;52.876;18.778;2022-08-14T17:16:46;100293.91;;;25.77;56.49
52185;BME280;38160;52.876;18.778;2022-08-14T17:43:38;100282.48;;;25.29;57.84
52185;BME280;38160;52.876;18.778;2022-08-14T17:49:25;100252.23;;;25.05;58.33
52185;BME280;38160;52.876;18.778;2022-08-14T17:54:51;100284.59;;;25.12;58.63
52185;BME280;38160;52.876;18.778;2022-08-14T17:57:24;100287.87;;;25.09;59.03
52185;BME280;38160;52.876;18.778;2022-08-14T18:00:11;100283.42;;;25.03;58.98
52185;BME280;38160;52.876;18.778;2022-08-14T18:03:02;100280.34;;;24.94;59.14
52185;BME280;38160;52.876;18.778;2022-08-14T18:05:43;100283.09;;;24.89;59.39
52185;BME280;38160;52.876;18.778;2022-08-14T18:08:25;100279.77;;;24.87;59.58
52185;BME280;38160;52.876;18.778;2022-08-14T18:20:54;100283.17;;;24.57;60.26
52185;BME280;38160;52.876;18.778;2022-08-14T18:23:28;100287.86;;;24.54;60.66
52185;BME280;38160;52.876;18.778;2022-08-14T18:26:16;100288.61;;;24.46;60.45
52185;BME280;38160;52.876;18.778;2022-08-14T18:28:50;100299.29;;;24.35;60.33
52185;BME280;38160;52.876;18.778;2022-08-14T18:34:14;100308.25;;;24.18;60.62
52185;BME280;38160;52.876;18.778;2022-08-14T18:36:53;100315.88;;;24.10;60.73
52185;BME280;38160;52.876;18.778;2022-08-14T18:39:29;100312.82;;;24.04;60.87
52185;BME280;38160;52.876;18.778;2022-08-14T18:47:36;100318.65;;;23.81;61.42
52185;BME280;38160;52.876;18.778;2022-08-14T18:51:05;100316.88;;;23.72;61.56
52185;BME280;38160;52.876;18.778;2022-08-14T18:56:56;100320.64;;;23.63;62.78
52185;BME280;38160;52.876;18.778;2022-08-14T19:16:16;100309.55;;;23.34;63.48
52185;BME280;38160;52.876;18.778;2022-08-14T20:00:41;100289.02;;;22.10;65.09
52185;BME280;38160;52.876;18.778;2022-08-14T20:03:44;100289.02;;;22.10;65.09
52185;BME280;38160;52.876;18.778;2022-08-14T20:06:45;100289.70;;;22.00;65.90
52185;BME280;38160;52.876;18.778;2022-08-14T20:15:45;100281.59;;;21.62;66.58
52185;BME280;38160;52.876;18.778;2022-08-14T20:24:44;100297.67;;;21.42;67.08
52185;BME280;38160;52.876;18.778;2022-08-14T20:59:49;100292.44;;;20.76;69.22
52185;BME280;38160;52.876;18.778;2022-08-14T21:02:42;100293.88;;;20.67;69.28
52185;BME280;38160;52.876;18.778;2022-08-14T21:08:19;100306.43;;;20.54;70.17
52185;BME280;38160;52.876;18.778;2022-08-14T21:10:53;100303.86;;;20.50;70.62
52185;BME280;38160;52.876;18.778;2022-08-14T21:16:44;100303.20;;;20.45;71.25
52185;BME280;38160;52.876;18.778;2022-08-14T21:19:49;100317.03;;;20.38;71.79
52185;BME280;38160;52.876;18.778;2022-08-14T21:25:09;100299.92;;;20.46;72.19
52185;BME280;38160;52.876;18.778;2022-08-14T21:27:42;100289.91;;;20.39;72.24
52185;BME280;38160;52.876;18.778;2022-08-14T21:30:15;100292.30;;;20.36;72.59
52185;BME280;38160;52.876;18.778;2022-08-14T21:33:01;100286.77;;;20.33;72.64
52185;BME280;38160;52.876;18.778;2022-08-14T21:35:34;100268.31;;;20.29;72.92
52185;BME280;38160;52.876;18.778;2022-08-14T21:38:07;100258.74;;;20.19;73.09
52185;BME280;38160;52.876;18.778;2022-08-14T21:40:47;100268.11;;;20.09;73.04
52185;BME280;38160;52.876;18.778;2022-08-14T21:43:32;100298.90;;;20.14;74.21
52185;BME280;38160;52.876;18.778;2022-08-14T21:47:00;100284.43;;;20.28;73.82
52185;BME280;38160;52.876;18.778;2022-08-14T21:49:49;100289.37;;;20.16;74.14
52185;BME280;38160;52.876;18.778;2022-08-14T23:01:40;100248.58;;;19.85;78.89
52185;BME280;38160;52.876;18.778;2022-08-14T23:56:51;100260.88;;;19.33;80.92
52185;BME280;38160;52.876;18.778;2022-08-14T23:59:22;100265.30;;;19.25;80.82
